sensor_id;sensor_type;location;lat;lon;timestamp;temperature;humidity
16970;DHT22;8601;48.718;8.992;2022-09-09T00:02:16;15.20;99.90
16970;DHT22;8601;48.718;8.992;2022-09-09T00:04:47;15.10;99.90
16970;DHT22;8601;48.718;8.992;2022-09-09T00:07:19;15.20;99.90
16970;DHT22;8601;48.718;8.992;2022-09-09T00:09:50;15.20;99.90
16970;DHT22;8601;48.718;8.992;2022-09-09T00:12:27;15.20;99.90
16970;DHT22;8601;48.718;8.992;2022-09-09T00:15:04;15.20;99.90
16970;DHT22;8601;48.718;8.992;2022-09-09T00:17:38;15.20;99.90
16970;DHT22;8601;48.718;8.992;2022-09-09T00:20:12;15.30;99.90
16970;DHT22;8601;48.718;8.992;2022-09-09T00:22:43;15.20;99.90
16970;DHT22;8601;48.718;8.992;2022-09-09T00:25:17;15.30;99.90
16970;DHT22;8601;48.718;8.992;2022-09-09T00:27:48;15.30;99.90
16970;DHT22;8601;48.718;8.992;2022-09-09T00:30:18;15.40;99.90
16970;DHT22;8601;48.718;8.992;2022-09-09T00:33:01;15.40;99.90
16970;DHT22;8601;48.718;8.992;2022-09-09T00:35:38;15.50;99.90
16970;DHT22;8601;48.718;8.992;2022-09-09T00:38:12;15.50;99.90
16970;DHT22;8601;48.718;8.992;2022-09-09T00:40:48;15.50;99.90
16970;DHT22;8601;48.718;8.992;2022-09-09T00:43:25;15.50;99.90
16970;DHT22;8601;48.718;8.992;2022-09-09T00:46:06;15.60;99.90
16970;DHT22;8601;48.718;8.992;2022-09-09T00:48:47;15.60;99.90
16970;DHT22;8601;48.718;8.992;2022-09-09T00:51:25;15.50;99.90
16970;DHT22;8601;48.718;8.992;2022-09-09T00:54:12;15.50;99.90
16970;DHT22;8601;48.718;8.992;2022-09-09T00:56:47;15.50;99.90
16970;DHT22;8601;48.718;8.992;2022-09-09T00:59:24;15.50;99.90
16970;DHT22;8601;48.718;8.992;2022-09-09T01:02:16;15.50;99.90
16970;DHT22;8601;48.718;8.992;2022-09-09T01:05:05;15.50;99.90
16970;DHT22;8601;48.718;8.992;2022-09-09T01:07:48;15.50;99.90
16970;DHT22;8601;48.718;8.992;2022-09-09T01:10:23;15.50;99.90
16970;DHT22;8601;48.718;8.992;2022-09-09T01:12:54;15.40;99.90
16970;DHT22;8601;48.718;8.992;2022-09-09T01:15:25;15.40;99.90
16970;DHT22;8601;48.718;8.992;2022-09-09T01:18:00;15.40;99.90
16970;DHT22;8601;48.718;8.992;2022-09-09T01:20:38;15.50;99.90
16970;DHT22;8601;48.718;8.992;2022-09-09T01:26:15;15.50;99.90
16970;DHT22;8601;48.718;8.992;2022-09-09T01:29:06;15.40;99.90
16970;DHT22;8601;48.718;8.992;2022-09-09T01:31:37;15.40;99.90
16970;DHT22;8601;48.718;8.992;2022-09-09T01:34:09;15.40;99.90
16970;DHT22;8601;48.718;8.992;2022-09-09T01:36:49;15.30;99.90
16970;DHT22;8601;48.718;8.992;2022-09-09T01:39:18;15.40;99.90
16970;DHT22;8601;48.718;8.992;2022-09-09T01:41:48;15.40;99.90
16970;DHT22;8601;48.718;8.992;2022-09-09T01:44:25;15.40;99.90
16970;DHT22;8601;48.718;8.992;2022-09-09T01:47:07;15.30;99.90
16970;DHT22;8601;48.718;8.992;2022-09-09T01:49:34;15.30;99.90
16970;DHT22;8601;48.718;8.992;2022-09-09T01:52:02;15.20;99.90
16970;DHT22;8601;48.718;8.992;2022-09-09T01:54:31;15.20;99.90
16970;DHT22;8601;48.718;8.992;2022-09-09T01:57:05;15.10;99.90
16970;DHT22;8601;48.718;8.992;2022-09-09T01:59:45;15.10;99.90
16970;DHT22;8601;48.718;8.992;2022-09-09T02:02:18;15.00;99.90
16970;DHT22;8601;48.718;8.992;2022-09-09T02:04:48;15.00;99.90
16970;DHT22;8601;48.718;8.992;2022-09-09T02:07:37;15.00;99.90
16970;DHT22;8601;48.718;8.992;2022-09-09T02:13:29;15.00;99.90
16970;DHT22;8601;48.718;8.992;2022-09-09T02:16:03;15.10;99.90
16970;DHT22;8601;48.718;8.992;2022-09-09T02:18:35;15.00;99.90
16970;DHT22;8601;48.718;8.992;2022-09-09T02:21:20;14.80;99.90
16970;DHT22;8601;48.718;8.992;2022-09-09T02:24:15;14.70;99.90
16970;DHT22;8601;48.718;8.992;2022-09-09T02:26:44;14.60;99.90
16970;DHT22;8601;48.718;8.992;2022-09-09T02:29:17;14.70;99.90
16970;DHT22;8601;48.718;8.992;2022-09-09T02:31:47;14.70;99.90
16970;DHT22;8601;48.718;8.992;2022-09-09T02:34:16;14.70;99.90
16970;DHT22;8601;48.718;8.992;2022-09-09T02:36:45;14.80;99.90
16970;DHT22;8601;48.718;8.992;2022-09-09T02:39:15;14.70;99.90
16970;DHT22;8601;48.718;8.992;2022-09-09T02:41:42;14.80;99.90
16970;DHT22;8601;48.718;8.992;2022-09-09T02:44:10;14.80;99.90
16970;DHT22;8601;48.718;8.992;2022-09-09T02:46:57;14.80;99.90
16970;DHT22;8601;48.718;8.992;2022-09-09T02:49:32;14.80;99.90
16970;DHT22;8601;48.718;8.992;2022-09-09T02:52:06;14.80;99.90
16970;DHT22;8601;48.718;8.992;2022-09-09T02:54:34;14.90;99.90
16970;DHT22;8601;48.718;8.992;2022-09-09T02:57:05;14.80;99.90
16970;DHT22;8601;48.718;8.992;2022-09-09T02:59:33;14.70;99.90
16970;DHT22;8601;48.718;8.992;2022-09-09T03:02:02;14.70;99.90
16970;DHT22;8601;48.718;8.992;2022-09-09T03:04:29;14.70;99.90
16970;DHT22;8601;48.718;8.992;2022-09-09T03:06:56;14.60;99.90
16970;DHT22;8601;48.718;8.992;2022-09-09T03:09:23;14.60;99.90
16970;DHT22;8601;48.718;8.992;2022-09-09T03:11:51;14.60;99.90
16970;DHT22;8601;48.718;8.992;2022-09-09T03:14:20;14.50;99.90
16970;DHT22;8601;48.718;8.992;2022-09-09T03:16:50;14.50;99.90
16970;DHT22;8601;48.718;8.992;2022-09-09T03:19:18;14.50;99.90
16970;DHT22;8601;48.718;8.992;2022-09-09T03:21:45;14.50;99.90
16970;DHT22;8601;48.718;8.992;2022-09-09T03:24:12;14.50;99.90
16970;DHT22;8601;48.718;8.992;2022-09-09T03:26:40;14.60;99.90
16970;DHT22;8601;48.718;8.992;2022-09-09T03:29:10;14.50;99.90
16970;DHT22;8601;48.718;8.992;2022-09-09T03:31:38;14.50;99.90
16970;DHT22;8601;48.718;8.992;2022-09-09T03:34:05;14.50;99.90
16970;DHT22;8601;48.718;8.992;2022-09-09T03:36:34;14.60;99.90
16970;DHT22;8601;48.718;8.992;2022-09-09T03:39:01;14.50;99.90
16970;DHT22;8601;48.718;8.992;2022-09-09T03:41:29;14.50;99.90
16970;DHT22;8601;48.718;8.992;2022-09-09T03:43:58;14.40;99.90
16970;DHT22;8601;48.718;8.992;2022-09-09T03:46:26;14.50;99.90
16970;DHT22;8601;48.718;8.992;2022-09-09T03:48:53;14.40;99.90
16970;DHT22;8601;48.718;8.992;2022-09-09T03:51:28;14.50;99.90
16970;DHT22;8601;48.718;8.992;2022-09-09T03:53:57;14.50;99.90
16970;DHT22;8601;48.718;8.992;2022-09-09T03:56:24;14.50;99.90
16970;DHT22;8601;48.718;8.992;2022-09-09T03:58:51;14.50;99.90
16970;DHT22;8601;48.718;8.992;2022-09-09T04:01:18;14.60;99.90
16970;DHT22;8601;48.718;8.992;2022-09-09T04:03:45;14.60;99.90
16970;DHT22;8601;48.718;8.992;2022-09-09T04:06:13;14.50;99.90
16970;DHT22;8601;48.718;8.992;2022-09-09T04:08:41;14.60;99.90
16970;DHT22;8601;48.718;8.992;2022-09-09T04:11:09;14.50;99.90
16970;DHT22;8601;48.718;8.992;2022-09-09T04:13:37;14.50;99.90
16970;DHT22;8601;48.718;8.992;2022-09-09T04:16:05;14.50;99.90
16970;DHT22;8601;48.718;8.992;2022-09-09T04:18:33;14.50;99.90
16970;DHT22;8601;48.718;8.992;2022-09-09T04:21:00;14.50;99.90
16970;DHT22;8601;48.718;8.992;2022-09-09T04:23:48;14.50;99.90
16970;DHT22;8601;48.718;8.992;2022-09-09T04:26:17;14.50;99.90
16970;DHT22;8601;48.718;8.992;2022-09-09T04:28:48;14.50;99.90
16970;DHT22;8601;48.718;8.992;2022-09-09T04:31:17;14.50;99.90
16970;DHT22;8601;48.718;8.992;2022-09-09T04:33:45;14.50;99.90
16970;DHT22;8601;48.718;8.992;2022-09-09T04:36:13;14.80;99.90
16970;DHT22;8601;48.718;8.992;2022-09-09T04:38:41;14.80;99.90
16970;DHT22;8601;48.718;8.992;2022-09-09T04:41:21;14.60;99.90
16970;DHT22;8601;48.718;8.992;2022-09-09T04:43:48;14.60;99.90
16970;DHT22;8601;48.718;8.992;2022-09-09T04:46:15;14.70;99.90
16970;DHT22;8601;48.718;8.992;2022-09-09T04:48:42;14.70;99.90
16970;DHT22;8601;48.718;8.992;2022-09-09T04:51:12;14.70;99.90
16970;DHT22;8601;48.718;8.992;2022-09-09T04:53:39;14.60;99.90
16970;DHT22;8601;48.718;8.992;2022-09-09T04:56:07;14.60;99.90
16970;DHT22;8601;48.718;8.992;2022-09-09T04:58:37;14.50;99.90
16970;DHT22;8601;48.718;8.992;2022-09-09T05:01:06;14.50;99.90
16970;DHT22;8601;48.718;8.992;2022-09-09T05:03:33;14.50;99.90
16970;DHT22;8601;48.718;8.992;2022-09-09T05:06:05;14.60;99.90
16970;DHT22;8601;48.718;8.992;2022-09-09T05:08:41;14.60;99.90
16970;DHT22;8601;48.718;8.992;2022-09-09T05:11:16;14.60;99.90
16970;DHT22;8601;48.718;8.992;2022-09-09T05:13:46;14.60;99.90
16970;DHT22;8601;48.718;8.992;2022-09-09T05:16:13;14.60;99.90
16970;DHT22;8601;48.718;8.992;2022-09-09T05:18:40;14.60;99.90
16970;DHT22;8601;48.718;8.992;2022-09-09T05:21:10;14.60;99.90
16970;DHT22;8601;48.718;8.992;2022-09-09T05:23:37;14.70;99.90
16970;DHT22;8601;48.718;8.992;2022-09-09T05:26:05;14.70;99.90
16970;DHT22;8601;48.718;8.992;2022-09-09T05:28:34;14.80;99.90
16970;DHT22;8601;48.718;8.992;2022-09-09T05:31:04;14.80;99.90
16970;DHT22;8601;48.718;8.992;2022-09-09T05:33:35;14.80;99.90
16970;DHT22;8601;48.718;8.992;2022-09-09T05:36:04;14.80;99.90
16970;DHT22;8601;48.718;8.992;2022-09-09T05:38:32;14.80;99.90
16970;DHT22;8601;48.718;8.992;2022-09-09T05:40:59;15.00;99.90
16970;DHT22;8601;48.718;8.992;2022-09-09T05:43:26;15.30;99.90
16970;DHT22;8601;48.718;8.992;2022-09-09T05:46:03;15.40;99.90
16970;DHT22;8601;48.718;8.992;2022-09-09T05:48:31;15.50;99.90
16970;DHT22;8601;48.718;8.992;2022-09-09T05:50:59;15.50;99.90
16970;DHT22;8601;48.718;8.992;2022-09-09T05:53:26;15.40;99.90
16970;DHT22;8601;48.718;8.992;2022-09-09T05:56:00;15.30;99.90
16970;DHT22;8601;48.718;8.992;2022-09-09T05:58:34;15.20;99.90
16970;DHT22;8601;48.718;8.992;2022-09-09T06:01:04;15.10;99.90
16970;DHT22;8601;48.718;8.992;2022-09-09T06:03:32;15.00;99.90
16970;DHT22;8601;48.718;8.992;2022-09-09T06:06:00;15.00;99.90
16970;DHT22;8601;48.718;8.992;2022-09-09T06:08:30;15.00;99.90
16970;DHT22;8601;48.718;8.992;2022-09-09T06:11:03;15.00;99.90
16970;DHT22;8601;48.718;8.992;2022-09-09T06:13:31;15.00;99.90
16970;DHT22;8601;48.718;8.992;2022-09-09T06:15:58;15.00;99.90
16970;DHT22;8601;48.718;8.992;2022-09-09T06:18:35;15.00;99.90
16970;DHT22;8601;48.718;8.992;2022-09-09T06:21:04;15.00;99.90
16970;DHT22;8601;48.718;8.992;2022-09-09T06:23:35;15.10;99.90
16970;DHT22;8601;48.718;8.992;2022-09-09T06:26:03;15.10;99.90
16970;DHT22;8601;48.718;8.992;2022-09-09T06:28:41;15.10;99.90
16970;DHT22;8601;48.718;8.992;2022-09-09T06:31:10;15.10;99.90
16970;DHT22;8601;48.718;8.992;2022-09-09T06:33:41;15.10;99.90
16970;DHT22;8601;48.718;8.992;2022-09-09T06:36:12;15.20;99.90
16970;DHT22;8601;48.718;8.992;2022-09-09T06:38:39;15.30;99.90
16970;DHT22;8601;48.718;8.992;2022-09-09T06:41:06;15.30;99.90
16970;DHT22;8601;48.718;8.992;2022-09-09T06:46:55;15.30;99.90
16970;DHT22;8601;48.718;8.992;2022-09-09T06:49:23;15.40;99.90
16970;DHT22;8601;48.718;8.992;2022-09-09T06:51:50;15.40;99.90
16970;DHT22;8601;48.718;8.992;2022-09-09T06:54:17;15.50;99.90
16970;DHT22;8601;48.718;8.992;2022-09-09T06:56:45;15.60;99.90
16970;DHT22;8601;48.718;8.992;2022-09-09T06:59:12;15.60;99.90
16970;DHT22;8601;48.718;8.992;2022-09-09T07:01:45;15.60;99.90
16970;DHT22;8601;48.718;8.992;2022-09-09T07:04:13;15.70;99.90
16970;DHT22;8601;48.718;8.992;2022-09-09T07:06:43;15.70;99.90
16970;DHT22;8601;48.718;8.992;2022-09-09T07:09:18;15.70;99.90
16970;DHT22;8601;48.718;8.992;2022-09-09T07:12:16;15.70;99.90
16970;DHT22;8601;48.718;8.992;2022-09-09T07:14:43;15.80;99.90
16970;DHT22;8601;48.718;8.992;2022-09-09T07:17:09;15.80;99.90
16970;DHT22;8601;48.718;8.992;2022-09-09T07:19:36;15.90;99.90
16970;DHT22;8601;48.718;8.992;2022-09-09T07:22:24;15.90;99.90
16970;DHT22;8601;48.718;8.992;2022-09-09T07:24:50;16.00;99.90
16970;DHT22;8601;48.718;8.992;2022-09-09T07:27:17;16.10;99.90
16970;DHT22;8601;48.718;8.992;2022-09-09T07:29:44;16.20;99.90
16970;DHT22;8601;48.718;8.992;2022-09-09T07:32:11;16.40;99.90
16970;DHT22;8601;48.718;8.992;2022-09-09T07:34:38;16.50;99.90
16970;DHT22;8601;48.718;8.992;2022-09-09T07:37:05;16.60;99.90
16970;DHT22;8601;48.718;8.992;2022-09-09T07:39:34;16.60;99.90
16970;DHT22;8601;48.718;8.992;2022-09-09T07:42:02;16.60;99.90
16970;DHT22;8601;48.718;8.992;2022-09-09T07:45:00;16.60;99.90
16970;DHT22;8601;48.718;8.992;2022-09-09T07:50:31;16.80;99.90
16970;DHT22;8601;48.718;8.992;2022-09-09T07:52:58;16.90;99.90
16970;DHT22;8601;48.718;8.992;2022-09-09T07:55:27;17.00;99.90
16970;DHT22;8601;48.718;8.992;2022-09-09T07:57:55;17.00;99.90
16970;DHT22;8601;48.718;8.992;2022-09-09T08:03:38;17.20;99.90
16970;DHT22;8601;48.718;8.992;2022-09-09T08:06:39;17.20;99.90
16970;DHT22;8601;48.718;8.992;2022-09-09T08:09:13;17.30;99.90
16970;DHT22;8601;48.718;8.992;2022-09-09T08:11:49;17.30;99.90
16970;DHT22;8601;48.718;8.992;2022-09-09T08:14:16;17.40;99.90
16970;DHT22;8601;48.718;8.992;2022-09-09T08:16:45;17.50;99.90
16970;DHT22;8601;48.718;8.992;2022-09-09T08:19:13;17.70;99.90
16970;DHT22;8601;48.718;8.992;2022-09-09T08:21:49;17.80;99.90
16970;DHT22;8601;48.718;8.992;2022-09-09T08:27:14;18.10;99.90
16970;DHT22;8601;48.718;8.992;2022-09-09T08:29:50;18.20;99.90
16970;DHT22;8601;48.718;8.992;2022-09-09T08:32:17;18.00;99.90
16970;DHT22;8601;48.718;8.992;2022-09-09T08:34:44;17.80;99.90
16970;DHT22;8601;48.718;8.992;2022-09-09T08:37:11;17.90;99.90
16970;DHT22;8601;48.718;8.992;2022-09-09T08:43:20;18.10;99.90
16970;DHT22;8601;48.718;8.992;2022-09-09T08:46:03;18.30;99.90
16970;DHT22;8601;48.718;8.992;2022-09-09T08:48:47;18.50;99.90
16970;DHT22;8601;48.718;8.992;2022-09-09T08:51:18;18.60;99.90
16970;DHT22;8601;48.718;8.992;2022-09-09T08:53:49;18.60;99.90
16970;DHT22;8601;48.718;8.992;2022-09-09T08:56:22;18.50;99.90
16970;DHT22;8601;48.718;8.992;2022-09-09T08:59:02;18.40;99.90
16970;DHT22;8601;48.718;8.992;2022-09-09T09:01:41;18.20;99.90
16970;DHT22;8601;48.718;8.992;2022-09-09T09:04:27;18.20;99.90
16970;DHT22;8601;48.718;8.992;2022-09-09T09:07:04;18.20;99.90
16970;DHT22;8601;48.718;8.992;2022-09-09T09:09:42;17.70;99.90
16970;DHT22;8601;48.718;8.992;2022-09-09T09:12:37;17.50;99.90
16970;DHT22;8601;48.718;8.992;2022-09-09T09:15:14;17.20;99.90
16970;DHT22;8601;48.718;8.992;2022-09-09T09:17:43;16.90;99.90
16970;DHT22;8601;48.718;8.992;2022-09-09T09:20:12;16.90;99.90
16970;DHT22;8601;48.718;8.992;2022-09-09T09:22:48;16.80;99.20
16970;DHT22;8601;48.718;8.992;2022-09-09T09:25:18;17.00;99.90
16970;DHT22;8601;48.718;8.992;2022-09-09T09:27:51;17.60;99.90
16970;DHT22;8601;48.718;8.992;2022-09-09T09:30:22;18.20;99.90
16970;DHT22;8601;48.718;8.992;2022-09-09T09:32:58;18.60;98.80
16970;DHT22;8601;48.718;8.992;2022-09-09T09:35:41;19.00;97.80
16970;DHT22;8601;48.718;8.992;2022-09-09T09:38:16;19.50;98.30
16970;DHT22;8601;48.718;8.992;2022-09-09T09:40:49;19.60;98.70
16970;DHT22;8601;48.718;8.992;2022-09-09T09:43:29;20.20;99.30
16970;DHT22;8601;48.718;8.992;2022-09-09T09:45:59;20.50;99.70
16970;DHT22;8601;48.718;8.992;2022-09-09T09:48:27;20.70;98.60
16970;DHT22;8601;48.718;8.992;2022-09-09T09:50:56;21.10;98.70
16970;DHT22;8601;48.718;8.992;2022-09-09T09:53:25;21.00;96.90
16970;DHT22;8601;48.718;8.992;2022-09-09T09:55:58;21.10;95.60
16970;DHT22;8601;48.718;8.992;2022-09-09T09:58:29;21.20;95.60
16970;DHT22;8601;48.718;8.992;2022-09-09T10:00:59;20.80;95.20
16970;DHT22;8601;48.718;8.992;2022-09-09T10:03:28;21.20;95.80
16970;DHT22;8601;48.718;8.992;2022-09-09T10:06:04;21.50;95.10
16970;DHT22;8601;48.718;8.992;2022-09-09T10:08:34;21.60;93.50
16970;DHT22;8601;48.718;8.992;2022-09-09T10:14:26;22.10;92.00
16970;DHT22;8601;48.718;8.992;2022-09-09T10:17:08;22.20;90.60
16970;DHT22;8601;48.718;8.992;2022-09-09T10:19:53;22.30;91.50
16970;DHT22;8601;48.718;8.992;2022-09-09T10:22:32;22.40;92.50
16970;DHT22;8601;48.718;8.992;2022-09-09T10:25:31;22.50;91.00
16970;DHT22;8601;48.718;8.992;2022-09-09T10:28:26;22.40;89.20
16970;DHT22;8601;48.718;8.992;2022-09-09T10:31:11;22.50;85.40
16970;DHT22;8601;48.718;8.992;2022-09-09T10:33:50;23.00;86.70
16970;DHT22;8601;48.718;8.992;2022-09-09T10:36:27;22.70;79.40
16970;DHT22;8601;48.718;8.992;2022-09-09T10:38:59;22.60;80.20
16970;DHT22;8601;48.718;8.992;2022-09-09T10:41:40;22.70;80.80
16970;DHT22;8601;48.718;8.992;2022-09-09T10:44:34;22.60;78.40
16970;DHT22;8601;48.718;8.992;2022-09-09T10:47:17;22.60;80.40
16970;DHT22;8601;48.718;8.992;2022-09-09T10:50:12;23.10;80.90
16970;DHT22;8601;48.718;8.992;2022-09-09T10:52:50;23.40;79.50
16970;DHT22;8601;48.718;8.992;2022-09-09T10:55:24;22.90;76.90
16970;DHT22;8601;48.718;8.992;2022-09-09T10:57:58;22.30;77.80
16970;DHT22;8601;48.718;8.992;2022-09-09T11:00:31;21.70;77.20
16970;DHT22;8601;48.718;8.992;2022-09-09T11:03:04;21.50;78.60
16970;DHT22;8601;48.718;8.992;2022-09-09T11:05:44;21.30;78.40
16970;DHT22;8601;48.718;8.992;2022-09-09T11:08:15;20.90;76.60
16970;DHT22;8601;48.718;8.992;2022-09-09T11:10:48;20.40;78.10
16970;DHT22;8601;48.718;8.992;2022-09-09T11:13:22;20.10;78.70
16970;DHT22;8601;48.718;8.992;2022-09-09T11:15:54;20.00;79.50
16970;DHT22;8601;48.718;8.992;2022-09-09T11:18:23;19.60;81.40
16970;DHT22;8601;48.718;8.992;2022-09-09T11:20:56;19.40;82.80
16970;DHT22;8601;48.718;8.992;2022-09-09T11:23:30;19.00;89.00
16970;DHT22;8601;48.718;8.992;2022-09-09T11:26:02;18.50;93.20
16970;DHT22;8601;48.718;8.992;2022-09-09T11:28:43;18.10;94.80
16970;DHT22;8601;48.718;8.992;2022-09-09T11:31:27;17.80;94.80
16970;DHT22;8601;48.718;8.992;2022-09-09T11:34:13;17.60;93.70
16970;DHT22;8601;48.718;8.992;2022-09-09T11:37:05;17.40;93.70
16970;DHT22;8601;48.718;8.992;2022-09-09T11:42:40;17.20;99.30
16970;DHT22;8601;48.718;8.992;2022-09-09T11:45:22;17.10;99.90
16970;DHT22;8601;48.718;8.992;2022-09-09T11:47:52;17.00;99.90
16970;DHT22;8601;48.718;8.992;2022-09-09T11:50:38;17.10;99.90
16970;DHT22;8601;48.718;8.992;2022-09-09T11:53:22;17.30;99.90
16970;DHT22;8601;48.718;8.992;2022-09-09T11:56:09;17.40;99.90
16970;DHT22;8601;48.718;8.992;2022-09-09T12:02:00;18.00;99.90
16970;DHT22;8601;48.718;8.992;2022-09-09T12:04:46;18.20;98.60
16970;DHT22;8601;48.718;8.992;2022-09-09T12:07:41;18.30;98.60
16970;DHT22;8601;48.718;8.992;2022-09-09T12:10:23;18.40;96.10
16970;DHT22;8601;48.718;8.992;2022-09-09T12:12:51;18.60;94.70
16970;DHT22;8601;48.718;8.992;2022-09-09T12:15:22;18.70;93.30
16970;DHT22;8601;48.718;8.992;2022-09-09T12:17:52;19.10;93.70
16970;DHT22;8601;48.718;8.992;2022-09-09T12:20:21;19.30;93.60
16970;DHT22;8601;48.718;8.992;2022-09-09T12:23:08;19.70;92.70
16970;DHT22;8601;48.718;8.992;2022-09-09T12:25:52;19.70;91.40
16970;DHT22;8601;48.718;8.992;2022-09-09T12:28:27;19.90;93.20
16970;DHT22;8601;48.718;8.992;2022-09-09T12:31:12;19.80;91.00
16970;DHT22;8601;48.718;8.992;2022-09-09T12:33:44;19.40;90.60
16970;DHT22;8601;48.718;8.992;2022-09-09T12:36:16;19.30;90.70
16970;DHT22;8601;48.718;8.992;2022-09-09T12:38:45;19.30;92.00
16970;DHT22;8601;48.718;8.992;2022-09-09T12:41:25;19.40;91.20
16970;DHT22;8601;48.718;8.992;2022-09-09T12:44:16;19.50;90.30
16970;DHT22;8601;48.718;8.992;2022-09-09T12:46:45;19.50;91.00
16970;DHT22;8601;48.718;8.992;2022-09-09T12:49:26;19.50;91.00
16970;DHT22;8601;48.718;8.992;2022-09-09T12:51:55;19.30;90.50
16970;DHT22;8601;48.718;8.992;2022-09-09T12:54:24;19.30;91.50
16970;DHT22;8601;48.718;8.992;2022-09-09T12:56:58;19.40;91.90
16970;DHT22;8601;48.718;8.992;2022-09-09T12:59:26;19.50;92.00
16970;DHT22;8601;48.718;8.992;2022-09-09T13:01:57;19.60;91.00
16970;DHT22;8601;48.718;8.992;2022-09-09T13:04:25;19.80;90.60
16970;DHT22;8601;48.718;8.992;2022-09-09T13:07:05;19.70;90.10
16970;DHT22;8601;48.718;8.992;2022-09-09T13:09:32;19.80;90.50
16970;DHT22;8601;48.718;8.992;2022-09-09T13:12:01;19.80;89.80
16970;DHT22;8601;48.718;8.992;2022-09-09T13:14:33;20.10;90.00
16970;DHT22;8601;48.718;8.992;2022-09-09T13:17:04;20.50;86.80
16970;DHT22;8601;48.718;8.992;2022-09-09T13:19:35;20.90;84.50
16970;DHT22;8601;48.718;8.992;2022-09-09T13:22:11;21.10;81.40
16970;DHT22;8601;48.718;8.992;2022-09-09T13:24:38;21.00;79.20
16970;DHT22;8601;48.718;8.992;2022-09-09T13:27:30;20.80;78.20
16970;DHT22;8601;48.718;8.992;2022-09-09T13:29:59;20.50;76.10
16970;DHT22;8601;48.718;8.992;2022-09-09T13:32:27;20.30;77.40
16970;DHT22;8601;48.718;8.992;2022-09-09T13:34:56;20.20;78.00
16970;DHT22;8601;48.718;8.992;2022-09-09T13:37:26;20.20;78.60
16970;DHT22;8601;48.718;8.992;2022-09-09T13:39:56;20.20;78.20
16970;DHT22;8601;48.718;8.992;2022-09-09T13:42:26;20.10;74.60
16970;DHT22;8601;48.718;8.992;2022-09-09T13:44:55;20.20;76.80
16970;DHT22;8601;48.718;8.992;2022-09-09T13:47:28;20.60;74.70
16970;DHT22;8601;48.718;8.992;2022-09-09T13:49:56;20.80;74.40
16970;DHT22;8601;48.718;8.992;2022-09-09T13:52:23;21.00;73.50
16970;DHT22;8601;48.718;8.992;2022-09-09T13:54:52;21.20;75.20
16970;DHT22;8601;48.718;8.992;2022-09-09T13:57:21;21.40;73.40
16970;DHT22;8601;48.718;8.992;2022-09-09T13:59:52;21.50;72.40
16970;DHT22;8601;48.718;8.992;2022-09-09T14:02:20;21.60;73.40
16970;DHT22;8601;48.718;8.992;2022-09-09T14:04:48;21.40;71.10
16970;DHT22;8601;48.718;8.992;2022-09-09T14:07:18;21.50;70.80
16970;DHT22;8601;48.718;8.992;2022-09-09T14:09:46;21.70;69.40
16970;DHT22;8601;48.718;8.992;2022-09-09T14:12:16;21.90;70.20
16970;DHT22;8601;48.718;8.992;2022-09-09T14:14:43;21.70;67.30
16970;DHT22;8601;48.718;8.992;2022-09-09T14:17:45;21.10;68.10
16970;DHT22;8601;48.718;8.992;2022-09-09T14:20:13;21.10;69.60
16970;DHT22;8601;48.718;8.992;2022-09-09T14:22:41;21.10;69.30
16970;DHT22;8601;48.718;8.992;2022-09-09T14:25:09;20.90;69.70
16970;DHT22;8601;48.718;8.992;2022-09-09T14:27:36;21.10;68.40
16970;DHT22;8601;48.718;8.992;2022-09-09T14:30:08;20.90;68.10
16970;DHT22;8601;48.718;8.992;2022-09-09T14:32:35;20.70;67.60
16970;DHT22;8601;48.718;8.992;2022-09-09T14:35:04;20.70;68.70
16970;DHT22;8601;48.718;8.992;2022-09-09T14:37:32;20.80;67.10
16970;DHT22;8601;48.718;8.992;2022-09-09T14:39:59;21.00;67.20
16970;DHT22;8601;48.718;8.992;2022-09-09T14:42:26;21.30;66.90
16970;DHT22;8601;48.718;8.992;2022-09-09T14:44:54;21.30;65.90
16970;DHT22;8601;48.718;8.992;2022-09-09T14:47:21;21.20;65.20
16970;DHT22;8601;48.718;8.992;2022-09-09T14:49:48;20.90;66.20
16970;DHT22;8601;48.718;8.992;2022-09-09T14:52:17;20.80;67.30
16970;DHT22;8601;48.718;8.992;2022-09-09T14:54:44;20.80;69.20
16970;DHT22;8601;48.718;8.992;2022-09-09T14:57:19;20.90;69.80
16970;DHT22;8601;48.718;8.992;2022-09-09T14:59:45;20.70;69.10
16970;DHT22;8601;48.718;8.992;2022-09-09T15:02:12;20.60;68.00
16970;DHT22;8601;48.718;8.992;2022-09-09T15:04:40;20.40;67.90
16970;DHT22;8601;48.718;8.992;2022-09-09T15:07:07;20.30;68.70
16970;DHT22;8601;48.718;8.992;2022-09-09T15:09:35;20.20;70.30
16970;DHT22;8601;48.718;8.992;2022-09-09T15:12:03;20.20;71.00
16970;DHT22;8601;48.718;8.992;2022-09-09T15:14:46;20.40;69.50
16970;DHT22;8601;48.718;8.992;2022-09-09T15:17:14;20.70;70.40
16970;DHT22;8601;48.718;8.992;2022-09-09T15:19:40;21.10;69.10
16970;DHT22;8601;48.718;8.992;2022-09-09T15:22:08;21.30;67.30
16970;DHT22;8601;48.718;8.992;2022-09-09T15:24:36;21.40;66.40
16970;DHT22;8601;48.718;8.992;2022-09-09T15:27:03;21.40;67.40
16970;DHT22;8601;48.718;8.992;2022-09-09T15:29:30;21.30;67.30
16970;DHT22;8601;48.718;8.992;2022-09-09T15:31:58;21.20;68.90
16970;DHT22;8601;48.718;8.992;2022-09-09T15:34:57;20.90;69.00
16970;DHT22;8601;48.718;8.992;2022-09-09T15:37:24;20.60;70.20
16970;DHT22;8601;48.718;8.992;2022-09-09T15:39:52;20.30;70.50
16970;DHT22;8601;48.718;8.992;2022-09-09T15:42:19;20.20;71.30
16970;DHT22;8601;48.718;8.992;2022-09-09T15:44:46;20.10;71.40
16970;DHT22;8601;48.718;8.992;2022-09-09T15:47:13;20.00;69.70
16970;DHT22;8601;48.718;8.992;2022-09-09T15:49:40;19.90;69.80
16970;DHT22;8601;48.718;8.992;2022-09-09T15:52:10;19.90;70.70
16970;DHT22;8601;48.718;8.992;2022-09-09T15:54:37;19.90;70.20
16970;DHT22;8601;48.718;8.992;2022-09-09T15:57:07;19.90;69.90
16970;DHT22;8601;48.718;8.992;2022-09-09T15:59:34;19.80;70.80
16970;DHT22;8601;48.718;8.992;2022-09-09T16:02:02;19.70;70.40
16970;DHT22;8601;48.718;8.992;2022-09-09T16:04:29;19.70;70.70
16970;DHT22;8601;48.718;8.992;2022-09-09T16:06:58;19.60;70.90
16970;DHT22;8601;48.718;8.992;2022-09-09T16:09:26;19.60;71.80
16970;DHT22;8601;48.718;8.992;2022-09-09T16:11:55;19.50;72.90
16970;DHT22;8601;48.718;8.992;2022-09-09T16:14:25;19.40;72.70
16970;DHT22;8601;48.718;8.992;2022-09-09T16:16:52;19.30;73.50
16970;DHT22;8601;48.718;8.992;2022-09-09T16:19:19;19.30;73.60
16970;DHT22;8601;48.718;8.992;2022-09-09T16:21:48;19.30;73.30
16970;DHT22;8601;48.718;8.992;2022-09-09T16:24:17;19.20;76.10
16970;DHT22;8601;48.718;8.992;2022-09-09T16:26:46;19.30;78.70
16970;DHT22;8601;48.718;8.992;2022-09-09T16:29:13;19.00;78.70
16970;DHT22;8601;48.718;8.992;2022-09-09T16:31:42;18.80;80.50
16970;DHT22;8601;48.718;8.992;2022-09-09T16:34:16;19.00;82.20
16970;DHT22;8601;48.718;8.992;2022-09-09T16:36:47;18.90;81.30
16970;DHT22;8601;48.718;8.992;2022-09-09T16:39:19;18.90;80.90
16970;DHT22;8601;48.718;8.992;2022-09-09T16:41:47;18.80;80.20
16970;DHT22;8601;48.718;8.992;2022-09-09T16:44:25;18.50;78.80
16970;DHT22;8601;48.718;8.992;2022-09-09T16:46:54;18.40;81.00
16970;DHT22;8601;48.718;8.992;2022-09-09T16:49:22;18.30;80.90
16970;DHT22;8601;48.718;8.992;2022-09-09T16:52:06;18.20;80.80